KHSV/HSV METAR and TAF weather

Enter ICAO airport designator
Station Type Date Time Source
KHSV METAR 2022/05/25 00:53 UTC NOAA

KHSV 250053Z 18004KT 10SM -RA FEW080 OVC120 21/19 A3004 RMK AO2 LTG DSNT E AND SE TSE18 SLP166 CB DSNT E AND SE P0004 T02060194


Station Type Date Time Source
KHSV Decoded METAR 2022/05/25 00:53 UTC NOAA

HUNTSVILLE INTERNATIONAL JONES FIELD, AL, United States (KHSV) 34-39N 086-47W 191M
May 24, 2022 - 08:53 PM EDT / 2022.05.25 0053 UTC
Wind: from the S (180 degrees) at 5 MPH (4 KT):0
Visibility: 10 mile(s):0
Sky conditions: overcast
Weather: light rain; Cumulonimbus clouds, lightning observed
Precipitation last hour: 0.04 inches
Temperature: 69.1 F (20.6 C)
Dew Point: 66.9 F (19.4 C)
Relative Humidity: 92%
Pressure (altimeter): 30.04 in. Hg (1017 hPa)
ob: KHSV 250053Z 18004KT 10SM -RA FEW080 OVC120 21/19 A3004 RMK AO2 LTG DSNT E AND SE TSE18 SLP166 CB DSNT E AND SE P0004 T02060194
cycle: 1

Station Type Date Time Source
KHSV TAF 2022/05/24 18:27 UTC NOAA

TAF KHSV 241724Z 2418/2518 13009KT P6SM VCSH SCT019 BKN035
FM242000 15009G16KT P6SM VCTS FEW012CB BKN060
FM250100 14007KT P6SM BKN060
FM250900 15008KT P6SM BKN025
FM251200 14010G15KT P6SM BKN021 PROB30 2512/2518 4SM TSRA BR OVC010CB

Example: see airport list